sensor_id;sensor_type;location;lat;lon;timestamp;pressure;altitude;pressure_sealevel;temperature;humidity
71565;BME280;59397;50.952;14.502;2024-03-06T00:07:42;973.10;;;0.99;100.00
71565;BME280;59397;50.952;14.502;2024-03-06T00:27:14;973.31;;;0.90;100.00
71565;BME280;59397;50.952;14.502;2024-03-06T00:46:49;973.45;;;0.85;100.00
71565;BME280;59397;50.952;14.502;2024-03-06T01:06:23;973.50;;;0.11;100.00
71565;BME280;59397;50.952;14.502;2024-03-06T01:25:55;973.57;;;0.36;100.00
71565;BME280;59397;50.952;14.502;2024-03-06T01:45:30;973.62;;;-0.27;100.00
71565;BME280;59397;50.952;14.502;2024-03-06T02:05:03;973.76;;;0.32;100.00
71565;BME280;59397;50.952;14.502;2024-03-06T02:24:34;973.90;;;0.41;100.00
71565;BME280;59397;50.952;14.502;2024-03-06T02:44:09;973.99;;;0.20;100.00
71565;BME280;59397;50.952;14.502;2024-03-06T03:03:43;973.94;;;0.67;100.00
71565;BME280;59397;50.952;14.502;2024-03-06T03:23:19;974.04;;;1.36;100.00
71565;BME280;59397;50.952;14.502;2024-03-06T03:42:55;974.09;;;0.94;100.00
71565;BME280;59397;50.952;14.502;2024-03-06T04:02:26;974.21;;;0.61;100.00
71565;BME280;59397;50.952;14.502;2024-03-06T04:22:04;974.20;;;2.35;100.00
71565;BME280;59397;50.952;14.502;2024-03-06T04:41:37;974.29;;;1.08;100.00
71565;BME280;59397;50.952;14.502;2024-03-06T05:01:13;974.44;;;1.99;100.00
71565;BME280;59397;50.952;14.502;2024-03-06T05:20:46;974.61;;;1.37;100.00
71565;BME280;59397;50.952;14.502;2024-03-06T05:40:17;974.79;;;1.03;100.00
71565;BME280;59397;50.952;14.502;2024-03-06T05:59:49;975.10;;;0.71;100.00
71565;BME280;59397;50.952;14.502;2024-03-06T06:19:25;975.33;;;0.47;100.00
71565;BME280;59397;50.952;14.502;2024-03-06T06:38:59;975.53;;;1.44;100.00
71565;BME280;59397;50.952;14.502;2024-03-06T06:58:36;975.66;;;2.04;100.00
71565;BME280;59397;50.952;14.502;2024-03-06T07:18:10;975.82;;;1.44;100.00
71565;BME280;59397;50.952;14.502;2024-03-06T07:37:46;975.80;;;2.16;100.00
71565;BME280;59397;50.952;14.502;2024-03-06T07:57:23;975.94;;;2.83;100.00
71565;BME280;59397;50.952;14.502;2024-03-06T08:16:58;975.97;;;4.52;100.00
71565;BME280;59397;50.952;14.502;2024-03-06T08:36:32;975.99;;;4.26;100.00
71565;BME280;59397;50.952;14.502;2024-03-06T08:56:07;976.17;;;4.30;100.00
71565;BME280;59397;50.952;14.502;2024-03-06T09:15:41;976.30;;;4.67;100.00
71565;BME280;59397;50.952;14.502;2024-03-06T09:54:31;976.50;;;4.65;100.00
71565;BME280;59397;50.952;14.502;2024-03-06T10:14:05;976.79;;;3.72;100.00
71565;BME280;59397;50.952;14.502;2024-03-06T10:33:39;976.81;;;3.93;100.00
71565;BME280;59397;50.952;14.502;2024-03-06T10:53:14;977.05;;;3.41;100.00
71565;BME280;59397;50.952;14.502;2024-03-06T11:12:47;977.15;;;3.50;100.00
71565;BME280;59397;50.952;14.502;2024-03-06T11:32:21;977.02;;;3.61;100.00
71565;BME280;59397;50.952;14.502;2024-03-06T11:51:55;977.05;;;3.28;100.00
71565;BME280;59397;50.952;14.502;2024-03-06T12:11:28;977.14;;;3.73;100.00
71565;BME280;59397;50.952;14.502;2024-03-06T12:31:01;977.09;;;3.24;100.00
71565;BME280;59397;50.952;14.502;2024-03-06T12:50:33;977.15;;;2.80;100.00
71565;BME280;59397;50.952;14.502;2024-03-06T13:10:10;977.15;;;4.04;100.00
71565;BME280;59397;50.952;14.502;2024-03-06T13:29:40;977.10;;;4.13;100.00
71565;BME280;59397;50.952;14.502;2024-03-06T14:08:49;977.12;;;4.49;98.83
71565;BME280;59397;50.952;14.502;2024-03-06T14:28:21;977.03;;;3.63;100.00
71565;BME280;59397;50.952;14.502;2024-03-06T14:48:02;977.03;;;5.06;97.46
71565;BME280;59397;50.952;14.502;2024-03-06T15:07:35;977.13;;;4.41;95.09
71565;BME280;59397;50.952;14.502;2024-03-06T15:27:11;977.15;;;4.60;92.79
71565;BME280;59397;50.952;14.502;2024-03-06T15:46:42;977.10;;;3.80;100.00
71565;BME280;59397;50.952;14.502;2024-03-06T16:06:15;977.27;;;3.47;100.00
71565;BME280;59397;50.952;14.502;2024-03-06T16:25:48;977.46;;;2.90;100.00
71565;BME280;59397;50.952;14.502;2024-03-06T16:45:18;977.61;;;1.88;100.00
71565;BME280;59397;50.952;14.502;2024-03-06T17:04:50;977.83;;;1.57;100.00
71565;BME280;59397;50.952;14.502;2024-03-06T17:24:23;977.94;;;1.37;100.00
71565;BME280;59397;50.952;14.502;2024-03-06T17:43:55;977.91;;;0.74;100.00
71565;BME280;59397;50.952;14.502;2024-03-06T18:03:32;978.08;;;1.49;100.00
71565;BME280;59397;50.952;14.502;2024-03-06T18:23:11;978.04;;;2.37;100.00
71565;BME280;59397;50.952;14.502;2024-03-06T18:42:45;978.04;;;2.95;100.00
71565;BME280;59397;50.952;14.502;2024-03-06T19:02:20;978.21;;;2.99;100.00
71565;BME280;59397;50.952;14.502;2024-03-06T19:21:55;978.30;;;2.66;100.00
71565;BME280;59397;50.952;14.502;2024-03-06T19:41:28;978.26;;;2.92;100.00
71565;BME280;59397;50.952;14.502;2024-03-06T20:01:05;978.27;;;3.35;100.00
71565;BME280;59397;50.952;14.502;2024-03-06T20:20:35;978.34;;;2.76;100.00
71565;BME280;59397;50.952;14.502;2024-03-06T20:40:11;978.30;;;3.09;100.00
71565;BME280;59397;50.952;14.502;2024-03-06T20:59:44;978.45;;;2.57;100.00
71565;BME280;59397;50.952;14.502;2024-03-06T21:19:18;978.46;;;2.85;100.00
71565;BME280;59397;50.952;14.502;2024-03-06T21:38:49;978.47;;;2.56;100.00
71565;BME280;59397;50.952;14.502;2024-03-06T21:58:23;978.45;;;2.94;100.00
71565;BME280;59397;50.952;14.502;2024-03-06T22:17:56;978.51;;;2.38;100.00
71565;BME280;59397;50.952;14.502;2024-03-06T22:37:31;978.47;;;2.81;100.00
71565;BME280;59397;50.952;14.502;2024-03-06T22:57:04;978.51;;;3.24;100.00
71565;BME280;59397;50.952;14.502;2024-03-06T23:16:39;978.44;;;2.94;100.00
71565;BME280;59397;50.952;14.502;2024-03-06T23:36:11;978.46;;;2.88;100.00
71565;BME280;59397;50.952;14.502;2024-03-06T23:55:45;978.44;;;3.23;100.00
